Weather at Beck Farm Airport

Public forecast

Using degrees Celsius for public forecast. Weather courtesy of forecast.io.

Closest aviation weather report (METAR) to Beck Farm Airport

Closest report is Pincher Creek Airport, 19.9 nm (36.8 km) NW.

2024/05/19 23:00 (retrieved 13 minutes ago)

CZPC 192300Z AUTO 22011G18KT 9SM SCT120 09/01 A2995 RMK LTNG DIST SE SLP165 DENSITY ALT 4200FT

Closest aviation forecast (TAF) to Beck Farm Airport

Closest forecast is Lethbridge County Airport, 34.9 nm (64.7 km) ENE.

2024/05/19 21:36 Ammendment (retrieved 2 hours ago)

TAF AMD TAF AMD CYQL 192132Z 1921/2006 24008KT P6SM BKN060 TEMPO 1921/2003 VRB15G25KT P6SM -SHRA VCTS BKN050CB FM200300 35010KT P6SM -SHRA FEW020 BKN050 RMK NXT FCST BY 200000Z